createdAt,value
2018-07-26T00:00:23.763Z,20.70
2018-07-26T00:02:52.268Z,20.70
2018-07-26T00:05:20.759Z,20.70
2018-07-26T00:07:49.233Z,20.70
2018-07-26T00:10:17.694Z,20.70
2018-07-26T00:12:46.361Z,20.70
2018-07-26T00:15:14.858Z,20.70
2018-07-26T00:17:43.317Z,20.70
2018-07-26T00:20:11.813Z,20.70
2018-07-26T00:22:40.233Z,20.70
2018-07-26T00:25:08.744Z,20.70
2018-07-26T00:27:37.219Z,20.70
2018-07-26T00:30:05.876Z,20.80
2018-07-26T00:35:02.656Z,20.80
2018-07-26T00:37:31.101Z,20.70
2018-07-26T00:39:59.545Z,20.70
2018-07-26T00:42:28.058Z,20.60
2018-07-26T00:44:56.525Z,20.50
2018-07-26T00:47:24.986Z,20.40
2018-07-26T00:49:53.459Z,20.30
2018-07-26T00:52:21.921Z,20.20
2018-07-26T00:54:50.361Z,20.10
2018-07-26T00:57:18.817Z,20.10
2018-07-26T00:59:47.261Z,20.10
2018-07-26T01:02:15.728Z,20.10
2018-07-26T01:04:44.313Z,20.10
2018-07-26T01:07:12.938Z,20.10
2018-07-26T01:09:41.468Z,20.10
2018-07-26T01:12:09.957Z,20.00
2018-07-26T01:14:38.389Z,20.00
2018-07-26T01:17:06.921Z,20.10
2018-07-26T01:19:35.491Z,20.00
2018-07-26T01:22:04.247Z,19.90
2018-07-26T01:24:32.804Z,19.90
2018-07-26T01:27:02.472Z,19.90
2018-07-26T01:29:30.941Z,19.80
2018-07-26T01:31:59.413Z,19.80
2018-07-26T01:34:27.914Z,19.70
2018-07-26T01:36:56.410Z,19.70
2018-07-26T01:39:24.965Z,19.70
2018-07-26T01:41:53.507Z,19.70
2018-07-26T01:44:23.541Z,19.60
2018-07-26T01:46:52.097Z,19.70
2018-07-26T01:49:20.653Z,19.70
2018-07-26T01:51:49.124Z,19.70
2018-07-26T01:54:17.670Z,19.70
2018-07-26T01:56:46.344Z,19.60
2018-07-26T01:59:14.921Z,19.60
2018-07-26T02:01:43.558Z,19.60
2018-07-26T02:04:12.144Z,19.60
2018-07-26T02:06:40.609Z,19.60
2018-07-26T02:09:10.263Z,19.60
2018-07-26T02:11:38.769Z,19.60
2018-07-26T02:14:11.485Z,19.60
2018-07-26T02:16:39.965Z,19.60
2018-07-26T02:19:08.685Z,19.60
2018-07-26T02:21:37.113Z,19.50
2018-07-26T02:24:05.775Z,19.50
2018-07-26T02:26:34.359Z,19.50
2018-07-26T02:29:02.801Z,19.50
2018-07-26T02:31:31.321Z,19.50
2018-07-26T02:33:59.769Z,19.50
2018-07-26T02:36:28.305Z,19.50
2018-07-26T02:38:57.337Z,19.50
2018-07-26T02:41:25.769Z,19.50
2018-07-26T02:46:22.365Z,19.50
2018-07-26T02:48:50.845Z,19.50
2018-07-26T02:51:19.394Z,19.40
2018-07-26T02:53:47.883Z,19.40
2018-07-26T02:56:16.340Z,19.40
2018-07-26T02:58:44.810Z,19.30
2018-07-26T03:01:13.348Z,19.40
2018-07-26T03:03:41.847Z,19.30
2018-07-26T03:06:10.291Z,19.30
2018-07-26T03:08:38.869Z,19.30
2018-07-26T03:11:07.326Z,19.40
2018-07-26T03:13:35.751Z,19.40
2018-07-26T03:16:04.370Z,19.40
2018-07-26T03:18:32.804Z,19.40
2018-07-26T03:21:01.312Z,19.40
2018-07-26T03:23:29.710Z,19.50
2018-07-26T03:25:58.138Z,19.40
2018-07-26T03:28:26.565Z,19.40
2018-07-26T03:30:54.992Z,19.30
2018-07-26T03:33:23.436Z,19.30
2018-07-26T03:35:51.865Z,19.40
2018-07-26T03:38:20.389Z,19.30
2018-07-26T03:40:48.987Z,19.30
2018-07-26T03:43:17.389Z,19.30
2018-07-26T03:45:45.874Z,19.30
2018-07-26T03:48:14.282Z,19.30
2018-07-26T03:50:42.902Z,19.30
2018-07-26T03:53:11.512Z,19.30
2018-07-26T03:55:40.288Z,19.30
2018-07-26T03:58:08.962Z,19.30
2018-07-26T04:00:37.445Z,19.30
2018-07-26T04:03:06.017Z,19.20
2018-07-26T04:08:02.696Z,19.20
2018-07-26T04:10:31.155Z,19.10
2018-07-26T04:15:27.893Z,19.10
2018-07-26T04:18:01.796Z,19.10
2018-07-26T04:20:30.327Z,19.10
2018-07-26T04:22:58.753Z,19.10
2018-07-26T04:25:27.212Z,19.20
2018-07-26T04:27:55.701Z,19.30
2018-07-26T04:30:24.438Z,19.30
2018-07-26T04:32:53.157Z,19.40
2018-07-26T04:35:21.637Z,19.40
2018-07-26T04:37:50.090Z,19.50
2018-07-26T04:40:18.533Z,19.60
2018-07-26T04:42:47.029Z,19.60
2018-07-26T04:45:15.569Z,19.70
2018-07-26T04:47:44.096Z,19.80
2018-07-26T04:50:12.589Z,19.80
2018-07-26T04:52:41.084Z,19.90
2018-07-26T04:55:09.502Z,20.00
2018-07-26T04:57:38.161Z,20.10
2018-07-26T05:00:07.358Z,20.10
2018-07-26T05:02:36.066Z,20.20
2018-07-26T05:05:05.470Z,20.30
2018-07-26T05:07:33.896Z,20.30
2018-07-26T05:10:02.335Z,20.40
2018-07-26T05:12:30.793Z,20.50
2018-07-26T05:14:59.264Z,20.50
2018-07-26T05:17:27.696Z,20.60
2018-07-26T05:19:56.185Z,20.70
2018-07-26T05:22:24.616Z,20.70
2018-07-26T05:24:53.041Z,20.80
2018-07-26T05:27:21.525Z,20.90
2018-07-26T05:29:49.960Z,21.00
2018-07-26T05:32:18.410Z,21.10
2018-07-26T05:34:47.021Z,21.20
2018-07-26T05:37:15.477Z,21.30
2018-07-26T05:39:43.973Z,21.40
2018-07-26T05:42:12.499Z,21.50
2018-07-26T05:44:40.976Z,21.60
2018-07-26T05:47:09.694Z,21.70
2018-07-26T05:49:38.172Z,21.80
2018-07-26T05:52:06.748Z,21.90
2018-07-26T05:54:35.345Z,22.00
2018-07-26T05:57:03.858Z,22.10
2018-07-26T05:59:32.301Z,22.20
2018-07-26T06:02:00.741Z,22.30
2018-07-26T06:04:29.313Z,22.40
2018-07-26T06:06:57.849Z,22.50
2018-07-26T06:09:26.400Z,22.60
2018-07-26T06:11:54.894Z,22.70
2018-07-26T06:14:23.438Z,22.80
2018-07-26T06:16:52.117Z,22.90
2018-07-26T06:19:20.586Z,23.00
2018-07-26T06:21:49.014Z,23.10
2018-07-26T06:24:17.432Z,23.30
2018-07-26T06:26:46.009Z,23.40
2018-07-26T06:29:14.537Z,23.60
2018-07-26T06:31:43.060Z,23.70
2018-07-26T06:34:11.581Z,23.90
2018-07-26T06:36:40.057Z,24.00
2018-07-26T06:42:05.509Z,24.40
2018-07-26T06:44:34.085Z,24.60
2018-07-26T06:49:30.781Z,24.80
2018-07-26T06:51:59.253Z,25.00
2018-07-26T06:54:29.274Z,25.10
2018-07-26T06:56:58.980Z,25.20
2018-07-26T07:02:42.129Z,25.50
2018-07-26T07:05:11.987Z,25.60
2018-07-26T07:07:41.952Z,25.70
2018-07-26T07:10:11.810Z,25.90
2018-07-26T07:12:41.733Z,26.00
2018-07-26T07:15:11.237Z,26.10
2018-07-26T07:17:40.236Z,26.20
2018-07-26T07:20:09.932Z,26.30
2018-07-26T07:22:38.793Z,26.40
2018-07-26T07:25:07.725Z,26.50
2018-07-26T07:27:36.706Z,26.60
2018-07-26T07:30:08.186Z,26.70
2018-07-26T07:32:37.071Z,26.90
2018-07-26T07:35:06.178Z,26.90
2018-07-26T07:37:35.156Z,27.00
2018-07-26T07:40:04.162Z,27.10
2018-07-26T07:42:33.118Z,27.30
2018-07-26T07:45:02.010Z,27.40
2018-07-26T07:47:31.018Z,27.50
2018-07-26T07:49:59.895Z,27.60
2018-07-26T07:52:28.633Z,27.70
2018-07-26T07:54:57.427Z,27.80
2018-07-26T07:57:26.258Z,27.90
2018-07-26T07:59:55.139Z,27.90
2018-07-26T08:02:23.851Z,28.00
2018-07-26T08:04:52.998Z,28.10
2018-07-26T08:07:22.184Z,28.20
2018-07-26T08:09:51.021Z,28.20
2018-07-26T08:12:19.794Z,28.20
2018-07-26T08:14:49.241Z,28.30
2018-07-26T08:17:18.173Z,28.40
2018-07-26T08:19:47.297Z,28.50
2018-07-26T08:22:16.099Z,28.60
2018-07-26T08:24:44.999Z,28.70
2018-07-26T08:27:13.843Z,28.80
2018-07-26T08:29:42.726Z,28.90
2018-07-26T08:32:11.464Z,28.90
2018-07-26T08:34:40.165Z,29.00
2018-07-26T08:37:08.908Z,29.00
2018-07-26T08:39:37.669Z,29.10
2018-07-26T08:42:06.619Z,29.20
2018-07-26T08:44:35.445Z,29.20
2018-07-26T08:47:04.403Z,29.30
2018-07-26T08:49:33.315Z,29.40
2018-07-26T08:52:02.177Z,29.50
2018-07-26T08:54:31.032Z,29.60
2018-07-26T08:57:00.787Z,29.70
2018-07-26T08:59:29.664Z,29.70
2018-07-26T09:01:58.527Z,29.70
2018-07-26T09:04:27.151Z,29.80
2018-07-26T09:06:56.822Z,29.80
2018-07-26T09:09:25.712Z,29.80
2018-07-26T09:11:54.519Z,29.90
2018-07-26T09:14:23.233Z,30.00
2018-07-26T09:16:52.128Z,30.00
2018-07-26T09:19:20.879Z,30.20
2018-07-26T09:21:49.608Z,30.30
2018-07-26T09:24:18.483Z,30.40
2018-07-26T09:26:47.565Z,30.50
2018-07-26T09:29:17.054Z,30.60
2018-07-26T09:31:45.886Z,30.70
2018-07-26T09:34:14.845Z,30.70
2018-07-26T09:36:43.695Z,30.70
2018-07-26T09:39:14.906Z,30.80
2018-07-26T09:41:43.840Z,31.00
2018-07-26T09:44:12.548Z,31.10
2018-07-26T09:46:41.402Z,31.10
2018-07-26T09:49:10.197Z,31.10
2018-07-26T09:51:38.950Z,31.10
2018-07-26T09:54:07.917Z,31.10
2018-07-26T09:56:36.757Z,31.10
2018-07-26T09:59:05.810Z,31.20
2018-07-26T10:01:36.050Z,31.30
2018-07-26T10:04:04.792Z,31.40
2018-07-26T10:06:33.514Z,31.50
2018-07-26T10:09:02.441Z,31.50
2018-07-26T10:11:31.264Z,31.60
2018-07-26T10:14:00.166Z,31.70
2018-07-26T10:16:29.013Z,31.80
2018-07-26T10:18:57.736Z,31.70
2018-07-26T10:21:26.442Z,31.60
2018-07-26T10:23:55.361Z,31.50
2018-07-26T10:26:24.205Z,31.50
2018-07-26T10:28:52.818Z,31.50
2018-07-26T10:31:21.634Z,31.50
2018-07-26T10:33:50.220Z,31.50
2018-07-26T10:36:18.884Z,31.60
2018-07-26T10:38:47.541Z,31.60
2018-07-26T10:41:16.302Z,31.60
2018-07-26T10:43:45.099Z,31.80
2018-07-26T10:46:13.863Z,31.90
2018-07-26T10:48:43.133Z,32.00
2018-07-26T10:51:11.858Z,32.10
2018-07-26T10:53:40.712Z,32.10
2018-07-26T10:56:09.426Z,32.10
2018-07-26T10:58:38.062Z,32.20
2018-07-26T11:01:07.302Z,32.20
2018-07-26T11:03:35.983Z,32.30
2018-07-26T11:06:04.769Z,32.30
2018-07-26T11:08:33.406Z,32.30
2018-07-26T11:11:01.954Z,32.30
2018-07-26T11:13:30.509Z,32.40
2018-07-26T11:15:59.196Z,32.40
2018-07-26T11:18:27.785Z,32.50
2018-07-26T11:20:56.453Z,32.60
2018-07-26T11:23:25.101Z,32.70
2018-07-26T11:25:53.774Z,32.80
2018-07-26T11:28:22.527Z,32.80
2018-07-26T11:30:51.293Z,32.90
2018-07-26T11:33:20.366Z,33.00
2018-07-26T11:35:48.966Z,33.00
2018-07-26T11:38:17.646Z,33.00
2018-07-26T11:40:46.317Z,33.00
2018-07-26T11:43:15.071Z,33.00
2018-07-26T11:45:43.836Z,33.00
2018-07-26T11:48:12.416Z,33.00
2018-07-26T11:50:41.148Z,33.00
2018-07-26T11:53:09.868Z,33.00
2018-07-26T11:55:38.705Z,33.10
2018-07-26T11:58:07.562Z,33.10
2018-07-26T12:00:36.403Z,33.10
2018-07-26T12:03:05.361Z,33.20
2018-07-26T12:05:34.210Z,33.20
2018-07-26T12:08:03.034Z,33.30
2018-07-26T12:10:31.682Z,33.40
2018-07-26T12:13:00.392Z,33.40
2018-07-26T12:15:29.084Z,33.30
2018-07-26T12:17:57.998Z,33.40
2018-07-26T12:20:26.880Z,33.50
2018-07-26T12:22:55.722Z,33.50
2018-07-26T12:25:24.590Z,33.50
2018-07-26T12:27:53.549Z,33.60
2018-07-26T12:30:22.543Z,33.70
2018-07-26T12:32:51.262Z,33.80
2018-07-26T12:35:21.630Z,33.80
2018-07-26T12:37:50.786Z,33.90
2018-07-26T12:40:19.457Z,34.10
2018-07-26T12:42:48.090Z,34.20
2018-07-26T12:45:17.000Z,34.20
2018-07-26T12:47:46.160Z,34.30
2018-07-26T12:50:15.012Z,34.30
2018-07-26T12:52:44.071Z,34.40
2018-07-26T12:55:12.757Z,34.40
2018-07-26T12:57:41.437Z,34.30
2018-07-26T13:00:10.635Z,34.20
2018-07-26T13:02:39.575Z,34.30
2018-07-26T13:05:08.642Z,34.30
2018-07-26T13:07:37.580Z,34.30
2018-07-26T13:10:06.520Z,34.30
2018-07-26T13:12:35.375Z,34.40
2018-07-26T13:15:04.377Z,34.40
2018-07-26T13:17:33.240Z,34.50
2018-07-26T13:20:01.973Z,34.50
2018-07-26T13:22:31.570Z,34.40
2018-07-26T13:25:01.013Z,34.40
2018-07-26T13:27:29.953Z,34.50
2018-07-26T13:29:58.845Z,34.30
2018-07-26T13:32:28.541Z,34.30
2018-07-26T13:34:58.631Z,34.30
2018-07-26T13:37:27.425Z,34.40
2018-07-26T13:39:56.444Z,34.30
2018-07-26T13:42:25.472Z,34.20
2018-07-26T13:44:55.627Z,34.20
2018-07-26T13:47:28.529Z,34.20
2018-07-26T13:49:58.196Z,34.20
2018-07-26T13:54:55.740Z,34.20
2018-07-26T13:57:24.570Z,34.20
2018-07-26T13:59:58.667Z,34.10
2018-07-26T14:02:28.918Z,34.00
2018-07-26T14:05:05.615Z,33.90
2018-07-26T14:07:34.504Z,33.90
2018-07-26T14:10:08.036Z,33.70
2018-07-26T14:12:37.646Z,33.70
2018-07-26T14:15:09.129Z,33.60
2018-07-26T14:17:38.082Z,33.60
2018-07-26T14:20:08.327Z,33.50
2018-07-26T14:22:37.564Z,33.40
2018-07-26T14:25:07.016Z,33.40
2018-07-26T14:27:45.917Z,33.40
2018-07-26T14:30:28.137Z,33.40
2018-07-26T14:33:01.449Z,33.30
2018-07-26T14:35:45.873Z,33.30
2018-07-26T14:38:15.624Z,33.30
2018-07-26T14:43:26.571Z,33.20
2018-07-26T14:46:00.520Z,33.10
2018-07-26T14:48:30.363Z,33.10
2018-07-26T14:51:00.013Z,33.10
2018-07-26T14:53:31.788Z,33.00
2018-07-26T14:56:02.225Z,33.00
2018-07-26T14:58:31.213Z,33.00
2018-07-26T15:01:07.109Z,33.00
2018-07-26T15:03:40.410Z,33.00
2018-07-26T15:06:14.916Z,33.10
2018-07-26T15:08:46.748Z,33.20
2018-07-26T15:11:16.530Z,33.20
2018-07-26T15:13:48.522Z,33.20
2018-07-26T15:16:17.513Z,33.20
2018-07-26T15:18:52.153Z,33.20
2018-07-26T15:21:31.605Z,33.20
2018-07-26T15:24:03.206Z,33.20
2018-07-26T15:29:01.680Z,33.20
2018-07-26T15:31:31.575Z,33.20
2018-07-26T15:34:01.770Z,33.30
2018-07-26T15:36:30.833Z,33.30
2018-07-26T15:39:20.641Z,33.40
2018-07-26T15:41:50.327Z,33.40
2018-07-26T15:44:36.428Z,33.40
2018-07-26T15:47:59.052Z,33.50
2018-07-26T15:56:18.113Z,33.90
2018-07-26T15:58:47.048Z,33.90
2018-07-26T16:01:16.005Z,34.10
2018-07-26T16:03:44.868Z,34.40
2018-07-26T16:06:14.392Z,34.40
2018-07-26T16:08:44.337Z,34.40
2018-07-26T16:11:15.583Z,34.40
2018-07-26T16:13:44.520Z,34.40
2018-07-26T16:16:14.146Z,34.50
2018-07-26T16:18:43.983Z,34.50
2018-07-26T16:23:48.201Z,34.70
2018-07-26T16:26:17.283Z,34.70
2018-07-26T16:28:49.218Z,34.80
2018-07-26T16:31:22.120Z,34.90
2018-07-26T16:33:53.194Z,35.10
2018-07-26T16:36:22.838Z,35.20
2018-07-26T16:38:54.659Z,35.40
2018-07-26T16:41:23.777Z,35.40
2018-07-26T16:43:56.383Z,35.60
2018-07-26T16:46:27.233Z,35.60
2018-07-26T16:48:56.341Z,35.70
2018-07-26T16:51:25.270Z,35.50
2018-07-26T16:53:54.398Z,35.20
2018-07-26T16:56:25.189Z,35.20
2018-07-26T16:58:54.253Z,35.10
2018-07-26T17:01:23.274Z,35.10
2018-07-26T17:03:52.361Z,35.00
2018-07-26T17:06:21.411Z,35.00
2018-07-26T17:08:51.234Z,35.10
2018-07-26T17:11:24.540Z,34.90
2018-07-26T17:17:01.776Z,34.20
2018-07-26T17:19:41.427Z,33.70
2018-07-26T17:22:25.773Z,32.90
2018-07-26T17:25:01.868Z,31.90
2018-07-26T17:27:34.979Z,31.20
2018-07-26T17:30:06.296Z,30.60
2018-07-26T17:32:36.763Z,30.00
2018-07-26T17:35:07.782Z,29.60
2018-07-26T17:37:37.949Z,29.30
2018-07-26T17:40:07.058Z,29.00
2018-07-26T17:42:36.017Z,28.90
2018-07-26T17:45:07.206Z,28.70
2018-07-26T17:47:36.209Z,28.50
2018-07-26T17:50:13.812Z,28.40
2018-07-26T17:52:43.007Z,28.20
2018-07-26T17:55:13.397Z,28.10
2018-07-26T17:57:43.275Z,28.00
2018-07-26T18:00:13.377Z,27.90
2018-07-26T18:02:42.165Z,27.70
2018-07-26T18:05:10.862Z,27.60
2018-07-26T18:07:39.576Z,27.50
2018-07-26T18:10:09.308Z,27.40
2018-07-26T18:12:38.301Z,27.20
2018-07-26T18:15:08.100Z,27.20
2018-07-26T18:17:36.962Z,27.10
2018-07-26T18:20:06.588Z,27.10
2018-07-26T18:22:35.410Z,27.10
2018-07-26T18:25:04.331Z,27.10
2018-07-26T18:27:33.006Z,27.10
2018-07-26T18:30:01.805Z,27.00
2018-07-26T18:32:30.735Z,27.00
2018-07-26T18:34:59.613Z,26.80
2018-07-26T18:37:28.385Z,26.80
2018-07-26T18:39:57.066Z,26.80
2018-07-26T18:42:25.708Z,26.70
2018-07-26T18:47:22.722Z,26.50
2018-07-26T18:49:51.337Z,26.40
2018-07-26T18:52:20.025Z,26.30
2018-07-26T18:54:49.089Z,26.30
2018-07-26T18:57:17.893Z,26.20
2018-07-26T18:59:46.653Z,26.10
2018-07-26T19:02:15.822Z,26.10
2018-07-26T19:04:44.679Z,26.00
2018-07-26T19:07:13.735Z,25.90
2018-07-26T19:09:42.521Z,25.90
2018-07-26T19:12:11.459Z,25.80
2018-07-26T19:17:08.805Z,25.70
2018-07-26T19:19:38.348Z,25.70
2018-07-26T19:22:07.594Z,25.60
2018-07-26T19:24:36.784Z,25.60
2018-07-26T19:27:05.790Z,25.50
2018-07-26T19:29:34.882Z,25.50
2018-07-26T19:32:03.774Z,25.40
2018-07-26T19:34:32.685Z,25.30
2018-07-26T19:37:01.279Z,25.30
2018-07-26T19:39:29.888Z,25.20
2018-07-26T19:41:58.868Z,25.10
2018-07-26T19:44:27.456Z,25.00
2018-07-26T19:46:56.337Z,24.90
2018-07-26T19:49:25.360Z,24.80
2018-07-26T19:51:54.325Z,24.70
2018-07-26T19:54:23.386Z,24.70
2018-07-26T19:56:52.584Z,24.60
2018-07-26T19:59:21.486Z,24.50
2018-07-26T20:01:50.264Z,24.40
2018-07-26T20:04:19.285Z,24.40
2018-07-26T20:06:47.829Z,24.30
2018-07-26T20:09:17.699Z,24.30
2018-07-26T20:11:46.489Z,24.20
2018-07-26T20:14:15.420Z,24.20
2018-07-26T20:16:44.077Z,24.10
2018-07-26T20:19:13.008Z,24.10
2018-07-26T20:21:41.736Z,24.00
2018-07-26T20:24:10.850Z,24.00
2018-07-26T20:26:39.924Z,23.90
2018-07-26T20:29:08.893Z,23.90
2018-07-26T20:31:37.724Z,23.80
2018-07-26T20:34:06.861Z,23.80
2018-07-26T20:36:35.702Z,23.80
2018-07-26T20:39:07.208Z,23.80
2018-07-26T20:41:35.968Z,23.80
2018-07-26T20:44:05.021Z,23.70
2018-07-26T20:46:33.702Z,23.60
2018-07-26T20:49:02.592Z,23.60
2018-07-26T20:51:31.492Z,23.50
2018-07-26T20:54:00.275Z,23.50
2018-07-26T20:56:29.179Z,23.40
2018-07-26T20:58:58.056Z,23.40
2018-07-26T21:01:27.099Z,23.40
2018-07-26T21:04:00.066Z,23.40
2018-07-26T21:06:31.408Z,23.40
2018-07-26T21:09:12.652Z,23.40
2018-07-26T21:11:56.438Z,23.40
2018-07-26T21:14:40.129Z,23.40
2018-07-26T21:17:22.388Z,23.40
2018-07-26T21:20:07.624Z,23.30
2018-07-26T21:22:51.739Z,23.30
2018-07-26T21:25:49.695Z,23.30
2018-07-26T21:28:43.327Z,23.20
2018-07-26T21:59:34.742Z,23.10
2018-07-26T22:10:35.827Z,22.90
2018-07-26T22:26:33.331Z,22.80
2018-07-26T22:29:40.075Z,22.70
2018-07-26T22:38:08.240Z,22.60
2018-07-26T22:54:14.191Z,22.40
2018-07-26T23:02:20.997Z,22.10
2018-07-26T23:07:53.369Z,21.90
2018-07-26T23:18:29.384Z,21.80
2018-07-26T23:22:07.524Z,21.70
2018-07-26T23:44:17.291Z,21.40
2018-07-26T23:46:50.383Z,21.40
2018-07-26T23:49:20.365Z,21.30
2018-07-26T23:51:49.958Z,21.30
2018-07-26T23:54:19.131Z,21.20
2018-07-26T23:56:48.143Z,21.20
2018-07-26T23:59:17.300Z,21.20
